sensor_id;sensor_type;location;lat;lon;timestamp;P1;durP1;ratioP1;P2;durP2;ratioP2
44130;SDS011;29792;48.726;9.248;2022-08-19T00:01:40;13.32;;;10.55;;
44130;SDS011;29792;48.726;9.248;2022-08-19T00:04:08;10.70;;;9.40;;
44130;SDS011;29792;48.726;9.248;2022-08-19T00:06:36;11.23;;;10.07;;
44130;SDS011;29792;48.726;9.248;2022-08-19T00:09:03;12.70;;;10.32;;
44130;SDS011;29792;48.726;9.248;2022-08-19T00:11:31;12.93;;;11.35;;
44130;SDS011;29792;48.726;9.248;2022-08-19T00:13:56;11.98;;;10.77;;
44130;SDS011;29792;48.726;9.248;2022-08-19T00:16:22;11.60;;;10.50;;
44130;SDS011;29792;48.726;9.248;2022-08-19T00:18:49;11.50;;;10.40;;
44130;SDS011;29792;48.726;9.248;2022-08-19T00:21:15;12.43;;;11.13;;
44130;SDS011;29792;48.726;9.248;2022-08-19T00:23:41;12.18;;;10.82;;
44130;SDS011;29792;48.726;9.248;2022-08-19T00:26:07;12.10;;;10.82;;
44130;SDS011;29792;48.726;9.248;2022-08-19T00:28:33;11.85;;;10.43;;
44130;SDS011;29792;48.726;9.248;2022-08-19T00:31:00;12.88;;;11.10;;
44130;SDS011;29792;48.726;9.248;2022-08-19T00:33:28;13.13;;;10.43;;
44130;SDS011;29792;48.726;9.248;2022-08-19T00:35:54;11.68;;;10.50;;
44130;SDS011;29792;48.726;9.248;2022-08-19T00:38:20;11.55;;;10.27;;
44130;SDS011;29792;48.726;9.248;2022-08-19T00:40:47;12.02;;;10.45;;
44130;SDS011;29792;48.726;9.248;2022-08-19T00:43:14;11.70;;;10.10;;
44130;SDS011;29792;48.726;9.248;2022-08-19T00:45:44;10.18;;;9.15;;
44130;SDS011;29792;48.726;9.248;2022-08-19T00:48:09;11.80;;;10.48;;
44130;SDS011;29792;48.726;9.248;2022-08-19T00:50:35;11.77;;;9.73;;
44130;SDS011;29792;48.726;9.248;2022-08-19T00:53:01;12.05;;;10.27;;
44130;SDS011;29792;48.726;9.248;2022-08-19T00:55:29;11.98;;;10.85;;
44130;SDS011;29792;48.726;9.248;2022-08-19T00:57:57;11.63;;;10.43;;
44130;SDS011;29792;48.726;9.248;2022-08-19T01:00:26;13.10;;;11.63;;
44130;SDS011;29792;48.726;9.248;2022-08-19T01:02:53;12.52;;;11.23;;
44130;SDS011;29792;48.726;9.248;2022-08-19T01:05:24;15.52;;;11.43;;
44130;SDS011;29792;48.726;9.248;2022-08-19T01:07:52;12.07;;;10.48;;
44130;SDS011;29792;48.726;9.248;2022-08-19T01:10:20;11.32;;;10.20;;
44130;SDS011;29792;48.726;9.248;2022-08-19T01:12:48;12.32;;;10.50;;
44130;SDS011;29792;48.726;9.248;2022-08-19T01:15:15;12.20;;;11.00;;
44130;SDS011;29792;48.726;9.248;2022-08-19T01:17:43;12.65;;;11.32;;
44130;SDS011;29792;48.726;9.248;2022-08-19T01:20:14;12.73;;;11.43;;
44130;SDS011;29792;48.726;9.248;2022-08-19T01:22:45;11.73;;;9.85;;
44130;SDS011;29792;48.726;9.248;2022-08-19T01:25:16;12.57;;;10.32;;
44130;SDS011;29792;48.726;9.248;2022-08-19T01:27:45;11.82;;;10.65;;
44130;SDS011;29792;48.726;9.248;2022-08-19T01:30:14;12.48;;;10.68;;
44130;SDS011;29792;48.726;9.248;2022-08-19T01:32:42;12.05;;;10.55;;
44130;SDS011;29792;48.726;9.248;2022-08-19T01:35:08;11.80;;;10.45;;
44130;SDS011;29792;48.726;9.248;2022-08-19T01:37:41;11.40;;;10.30;;
44130;SDS011;29792;48.726;9.248;2022-08-19T01:40:11;11.55;;;10.45;;
44130;SDS011;29792;48.726;9.248;2022-08-19T01:42:36;12.68;;;11.00;;
44130;SDS011;29792;48.726;9.248;2022-08-19T01:45:02;12.68;;;11.38;;
44130;SDS011;29792;48.726;9.248;2022-08-19T01:47:28;14.05;;;11.63;;
44130;SDS011;29792;48.726;9.248;2022-08-19T01:49:54;13.00;;;11.25;;
44130;SDS011;29792;48.726;9.248;2022-08-19T01:52:19;12.63;;;11.27;;
44130;SDS011;29792;48.726;9.248;2022-08-19T01:54:44;11.73;;;10.23;;
44130;SDS011;29792;48.726;9.248;2022-08-19T01:57:10;12.30;;;10.45;;
44130;SDS011;29792;48.726;9.248;2022-08-19T01:59:38;11.85;;;10.52;;
44130;SDS011;29792;48.726;9.248;2022-08-19T02:02:05;12.82;;;10.38;;
44130;SDS011;29792;48.726;9.248;2022-08-19T02:04:33;12.50;;;11.27;;
44130;SDS011;29792;48.726;9.248;2022-08-19T02:06:59;12.00;;;10.70;;
44130;SDS011;29792;48.726;9.248;2022-08-19T02:09:24;13.80;;;10.85;;
44130;SDS011;29792;48.726;9.248;2022-08-19T02:11:49;13.55;;;11.65;;
44130;SDS011;29792;48.726;9.248;2022-08-19T02:14:15;14.00;;;11.15;;
44130;SDS011;29792;48.726;9.248;2022-08-19T02:16:40;14.15;;;12.48;;
44130;SDS011;29792;48.726;9.248;2022-08-19T02:19:05;13.40;;;12.00;;
44130;SDS011;29792;48.726;9.248;2022-08-19T02:21:31;13.55;;;12.10;;
44130;SDS011;29792;48.726;9.248;2022-08-19T02:23:58;12.90;;;11.52;;
44130;SDS011;29792;48.726;9.248;2022-08-19T02:26:23;14.13;;;11.93;;
44130;SDS011;29792;48.726;9.248;2022-08-19T02:28:51;12.38;;;11.07;;
44130;SDS011;29792;48.726;9.248;2022-08-19T02:31:18;15.88;;;12.07;;
44130;SDS011;29792;48.726;9.248;2022-08-19T02:33:45;12.93;;;10.95;;
44130;SDS011;29792;48.726;9.248;2022-08-19T02:36:12;14.20;;;12.38;;
44130;SDS011;29792;48.726;9.248;2022-08-19T02:38:38;16.30;;;13.05;;
44130;SDS011;29792;48.726;9.248;2022-08-19T02:41:05;16.05;;;13.10;;
44130;SDS011;29792;48.726;9.248;2022-08-19T02:43:34;13.50;;;11.68;;
44130;SDS011;29792;48.726;9.248;2022-08-19T02:46:15;17.00;;;12.32;;
44130;SDS011;29792;48.726;9.248;2022-08-19T02:48:45;14.02;;;12.52;;
44130;SDS011;29792;48.726;9.248;2022-08-19T02:51:16;14.88;;;12.40;;
44130;SDS011;29792;48.726;9.248;2022-08-19T02:53:45;17.60;;;13.98;;
44130;SDS011;29792;48.726;9.248;2022-08-19T02:56:11;14.25;;;12.75;;
44130;SDS011;29792;48.726;9.248;2022-08-19T02:58:36;15.70;;;13.43;;
44130;SDS011;29792;48.726;9.248;2022-08-19T03:01:01;17.23;;;14.93;;
44130;SDS011;29792;48.726;9.248;2022-08-19T03:03:27;17.45;;;13.57;;
44130;SDS011;29792;48.726;9.248;2022-08-19T03:06:02;17.25;;;14.43;;
44130;SDS011;29792;48.726;9.248;2022-08-19T03:08:29;16.77;;;13.23;;
44130;SDS011;29792;48.726;9.248;2022-08-19T03:10:54;16.58;;;14.70;;
44130;SDS011;29792;48.726;9.248;2022-08-19T03:13:20;19.52;;;14.10;;
44130;SDS011;29792;48.726;9.248;2022-08-19T03:15:48;16.75;;;13.70;;
44130;SDS011;29792;48.726;9.248;2022-08-19T03:18:14;16.30;;;13.07;;
44130;SDS011;29792;48.726;9.248;2022-08-19T03:20:41;16.65;;;14.88;;
44130;SDS011;29792;48.726;9.248;2022-08-19T03:23:10;18.35;;;14.98;;
44130;SDS011;29792;48.726;9.248;2022-08-19T03:25:41;18.23;;;15.23;;
44130;SDS011;29792;48.726;9.248;2022-08-19T03:28:12;24.17;;;19.58;;
44130;SDS011;29792;48.726;9.248;2022-08-19T03:30:40;19.55;;;14.40;;
44130;SDS011;29792;48.726;9.248;2022-08-19T03:33:07;19.58;;;16.13;;
44130;SDS011;29792;48.726;9.248;2022-08-19T03:35:33;21.60;;;16.05;;
44130;SDS011;29792;48.726;9.248;2022-08-19T03:38:01;18.55;;;16.02;;
44130;SDS011;29792;48.726;9.248;2022-08-19T03:40:28;19.90;;;16.50;;
44130;SDS011;29792;48.726;9.248;2022-08-19T03:42:54;20.65;;;16.40;;
44130;SDS011;29792;48.726;9.248;2022-08-19T03:45:20;20.75;;;16.08;;
44130;SDS011;29792;48.726;9.248;2022-08-19T03:47:45;19.83;;;16.10;;
44130;SDS011;29792;48.726;9.248;2022-08-19T03:50:10;19.40;;;15.30;;
44130;SDS011;29792;48.726;9.248;2022-08-19T03:52:36;20.45;;;15.80;;
44130;SDS011;29792;48.726;9.248;2022-08-19T03:55:01;18.50;;;16.23;;
44130;SDS011;29792;48.726;9.248;2022-08-19T03:57:27;19.85;;;17.58;;
44130;SDS011;29792;48.726;9.248;2022-08-19T03:59:52;18.30;;;14.75;;
44130;SDS011;29792;48.726;9.248;2022-08-19T04:02:18;18.40;;;16.40;;
44130;SDS011;29792;48.726;9.248;2022-08-19T04:04:43;20.48;;;17.40;;
44130;SDS011;29792;48.726;9.248;2022-08-19T04:07:09;21.60;;;17.58;;
44130;SDS011;29792;48.726;9.248;2022-08-19T04:09:36;20.42;;;16.48;;
44130;SDS011;29792;48.726;9.248;2022-08-19T04:12:01;20.13;;;16.38;;
44130;SDS011;29792;48.726;9.248;2022-08-19T04:14:30;19.05;;;17.02;;
44130;SDS011;29792;48.726;9.248;2022-08-19T04:16:55;17.95;;;16.02;;
44130;SDS011;29792;48.726;9.248;2022-08-19T04:19:21;18.88;;;16.80;;
44130;SDS011;29792;48.726;9.248;2022-08-19T04:21:49;21.35;;;17.33;;
44130;SDS011;29792;48.726;9.248;2022-08-19T04:24:16;23.95;;;17.92;;
44130;SDS011;29792;48.726;9.248;2022-08-19T04:26:42;20.25;;;16.90;;
44130;SDS011;29792;48.726;9.248;2022-08-19T04:29:10;19.17;;;15.88;;
44130;SDS011;29792;48.726;9.248;2022-08-19T04:31:37;21.83;;;16.50;;
44130;SDS011;29792;48.726;9.248;2022-08-19T04:34:05;20.98;;;18.02;;
44130;SDS011;29792;48.726;9.248;2022-08-19T04:36:34;19.98;;;16.65;;
44130;SDS011;29792;48.726;9.248;2022-08-19T04:39:05;21.92;;;18.02;;
44130;SDS011;29792;48.726;9.248;2022-08-19T04:41:33;19.17;;;16.67;;
44130;SDS011;29792;48.726;9.248;2022-08-19T04:44:17;22.98;;;19.13;;
44130;SDS011;29792;48.726;9.248;2022-08-19T04:46:44;21.90;;;18.35;;
44130;SDS011;29792;48.726;9.248;2022-08-19T04:49:10;20.92;;;17.55;;
44130;SDS011;29792;48.726;9.248;2022-08-19T04:51:36;19.10;;;17.08;;
44130;SDS011;29792;48.726;9.248;2022-08-19T04:54:02;20.73;;;18.05;;
44130;SDS011;29792;48.726;9.248;2022-08-19T04:56:28;23.67;;;18.75;;
44130;SDS011;29792;48.726;9.248;2022-08-19T04:58:54;24.92;;;18.52;;
44130;SDS011;29792;48.726;9.248;2022-08-19T05:01:21;21.95;;;18.30;;
44130;SDS011;29792;48.726;9.248;2022-08-19T05:03:53;23.33;;;19.55;;
44130;SDS011;29792;48.726;9.248;2022-08-19T05:06:19;24.90;;;20.38;;
44130;SDS011;29792;48.726;9.248;2022-08-19T05:08:46;25.55;;;19.02;;
44130;SDS011;29792;48.726;9.248;2022-08-19T05:11:22;22.35;;;18.92;;
44130;SDS011;29792;48.726;9.248;2022-08-19T05:13:50;19.98;;;16.17;;
44130;SDS011;29792;48.726;9.248;2022-08-19T05:16:17;24.08;;;18.67;;
44130;SDS011;29792;48.726;9.248;2022-08-19T05:18:44;24.45;;;19.10;;
44130;SDS011;29792;48.726;9.248;2022-08-19T05:21:29;22.57;;;19.50;;
44130;SDS011;29792;48.726;9.248;2022-08-19T05:24:14;20.85;;;15.95;;
44130;SDS011;29792;48.726;9.248;2022-08-19T05:26:41;26.00;;;21.63;;
44130;SDS011;29792;48.726;9.248;2022-08-19T05:29:11;21.50;;;17.27;;
44130;SDS011;29792;48.726;9.248;2022-08-19T05:31:37;21.77;;;18.55;;
44130;SDS011;29792;48.726;9.248;2022-08-19T05:34:03;20.58;;;17.20;;
44130;SDS011;29792;48.726;9.248;2022-08-19T05:36:33;22.55;;;17.88;;
44130;SDS011;29792;48.726;9.248;2022-08-19T05:39:06;20.10;;;16.17;;
44130;SDS011;29792;48.726;9.248;2022-08-19T05:41:33;24.55;;;18.17;;
44130;SDS011;29792;48.726;9.248;2022-08-19T05:44:03;21.10;;;18.42;;
44130;SDS011;29792;48.726;9.248;2022-08-19T05:46:31;20.25;;;17.75;;
44130;SDS011;29792;48.726;9.248;2022-08-19T05:48:57;21.95;;;19.60;;
44130;SDS011;29792;48.726;9.248;2022-08-19T05:51:22;22.75;;;18.95;;
44130;SDS011;29792;48.726;9.248;2022-08-19T05:53:48;22.58;;;18.58;;
44130;SDS011;29792;48.726;9.248;2022-08-19T05:56:14;22.55;;;17.05;;
44130;SDS011;29792;48.726;9.248;2022-08-19T05:58:42;19.98;;;17.40;;
44130;SDS011;29792;48.726;9.248;2022-08-19T06:01:10;20.42;;;18.23;;
44130;SDS011;29792;48.726;9.248;2022-08-19T06:03:38;22.58;;;18.88;;
44130;SDS011;29792;48.726;9.248;2022-08-19T06:06:04;22.10;;;17.77;;
44130;SDS011;29792;48.726;9.248;2022-08-19T06:08:30;23.60;;;17.48;;
44130;SDS011;29792;48.726;9.248;2022-08-19T06:10:56;20.67;;;17.25;;
44130;SDS011;29792;48.726;9.248;2022-08-19T06:13:22;21.42;;;18.23;;
44130;SDS011;29792;48.726;9.248;2022-08-19T06:15:48;28.48;;;18.33;;
44130;SDS011;29792;48.726;9.248;2022-08-19T06:18:14;20.80;;;18.00;;
44130;SDS011;29792;48.726;9.248;2022-08-19T06:20:40;22.38;;;18.27;;
44130;SDS011;29792;48.726;9.248;2022-08-19T06:23:06;25.02;;;20.33;;
44130;SDS011;29792;48.726;9.248;2022-08-19T06:25:32;22.35;;;18.08;;
44130;SDS011;29792;48.726;9.248;2022-08-19T06:27:57;23.85;;;18.73;;
44130;SDS011;29792;48.726;9.248;2022-08-19T06:30:22;22.00;;;18.92;;
44130;SDS011;29792;48.726;9.248;2022-08-19T06:32:48;20.95;;;18.13;;
44130;SDS011;29792;48.726;9.248;2022-08-19T06:35:13;24.45;;;19.80;;
44130;SDS011;29792;48.726;9.248;2022-08-19T06:37:39;23.77;;;19.73;;
44130;SDS011;29792;48.726;9.248;2022-08-19T06:40:05;24.02;;;19.00;;
44130;SDS011;29792;48.726;9.248;2022-08-19T06:42:30;23.30;;;20.15;;
44130;SDS011;29792;48.726;9.248;2022-08-19T06:44:56;22.58;;;18.13;;
44130;SDS011;29792;48.726;9.248;2022-08-19T06:47:22;25.10;;;20.08;;
44130;SDS011;29792;48.726;9.248;2022-08-19T06:49:48;22.83;;;19.23;;
44130;SDS011;29792;48.726;9.248;2022-08-19T06:52:13;24.90;;;19.13;;
44130;SDS011;29792;48.726;9.248;2022-08-19T06:54:40;23.80;;;19.08;;
44130;SDS011;29792;48.726;9.248;2022-08-19T06:57:09;20.73;;;18.52;;
44130;SDS011;29792;48.726;9.248;2022-08-19T06:59:39;19.77;;;16.80;;
44130;SDS011;29792;48.726;9.248;2022-08-19T07:02:05;22.38;;;19.55;;
44130;SDS011;29792;48.726;9.248;2022-08-19T07:04:32;22.88;;;19.77;;
44130;SDS011;29792;48.726;9.248;2022-08-19T07:06:59;22.08;;;18.02;;
44130;SDS011;29792;48.726;9.248;2022-08-19T07:09:27;23.10;;;19.15;;
44130;SDS011;29792;48.726;9.248;2022-08-19T07:11:53;24.90;;;19.52;;
44130;SDS011;29792;48.726;9.248;2022-08-19T07:14:20;21.10;;;18.63;;
44130;SDS011;29792;48.726;9.248;2022-08-19T07:16:49;25.55;;;18.90;;
44130;SDS011;29792;48.726;9.248;2022-08-19T07:19:17;21.02;;;18.38;;
44130;SDS011;29792;48.726;9.248;2022-08-19T07:21:43;23.45;;;18.52;;
44130;SDS011;29792;48.726;9.248;2022-08-19T07:24:09;23.55;;;20.17;;
44130;SDS011;29792;48.726;9.248;2022-08-19T07:26:38;22.50;;;18.20;;
44130;SDS011;29792;48.726;9.248;2022-08-19T07:29:05;22.23;;;19.85;;
44130;SDS011;29792;48.726;9.248;2022-08-19T07:31:31;25.63;;;19.45;;
44130;SDS011;29792;48.726;9.248;2022-08-19T07:34:02;21.60;;;18.27;;
44130;SDS011;29792;48.726;9.248;2022-08-19T07:36:32;21.73;;;18.67;;
44130;SDS011;29792;48.726;9.248;2022-08-19T07:38:59;23.45;;;20.58;;
44130;SDS011;29792;48.726;9.248;2022-08-19T07:41:28;27.17;;;19.75;;
44130;SDS011;29792;48.726;9.248;2022-08-19T07:43:56;22.00;;;18.48;;
44130;SDS011;29792;48.726;9.248;2022-08-19T07:46:22;21.55;;;17.35;;
44130;SDS011;29792;48.726;9.248;2022-08-19T07:48:48;25.48;;;19.20;;
44130;SDS011;29792;48.726;9.248;2022-08-19T07:51:16;20.92;;;18.48;;
44130;SDS011;29792;48.726;9.248;2022-08-19T07:53:43;23.85;;;20.30;;
44130;SDS011;29792;48.726;9.248;2022-08-19T07:56:10;20.90;;;17.67;;
44130;SDS011;29792;48.726;9.248;2022-08-19T07:58:39;21.67;;;19.30;;
44130;SDS011;29792;48.726;9.248;2022-08-19T08:01:06;24.50;;;19.27;;
44130;SDS011;29792;48.726;9.248;2022-08-19T08:03:35;23.45;;;19.00;;
44130;SDS011;29792;48.726;9.248;2022-08-19T08:06:19;22.25;;;18.60;;
44130;SDS011;29792;48.726;9.248;2022-08-19T08:09:03;23.48;;;18.75;;
44130;SDS011;29792;48.726;9.248;2022-08-19T08:11:36;22.13;;;17.95;;
44130;SDS011;29792;48.726;9.248;2022-08-19T08:14:05;24.55;;;19.33;;
44130;SDS011;29792;48.726;9.248;2022-08-19T08:16:38;22.88;;;20.40;;
44130;SDS011;29792;48.726;9.248;2022-08-19T08:19:04;24.92;;;19.90;;
44130;SDS011;29792;48.726;9.248;2022-08-19T08:21:30;21.50;;;19.25;;
44130;SDS011;29792;48.726;9.248;2022-08-19T08:23:56;25.10;;;20.58;;
44130;SDS011;29792;48.726;9.248;2022-08-19T08:26:22;26.05;;;21.52;;
44130;SDS011;29792;48.726;9.248;2022-08-19T08:28:47;24.65;;;20.05;;
44130;SDS011;29792;48.726;9.248;2022-08-19T08:31:13;24.55;;;20.02;;
44130;SDS011;29792;48.726;9.248;2022-08-19T08:33:39;23.77;;;19.17;;
44130;SDS011;29792;48.726;9.248;2022-08-19T08:36:07;26.30;;;21.13;;
44130;SDS011;29792;48.726;9.248;2022-08-19T08:38:33;21.90;;;18.52;;
44130;SDS011;29792;48.726;9.248;2022-08-19T08:41:07;21.17;;;18.23;;
44130;SDS011;29792;48.726;9.248;2022-08-19T08:43:39;22.75;;;19.92;;
44130;SDS011;29792;48.726;9.248;2022-08-19T08:46:09;28.35;;;20.88;;
44130;SDS011;29792;48.726;9.248;2022-08-19T08:51:20;23.77;;;21.08;;
44130;SDS011;29792;48.726;9.248;2022-08-19T08:53:58;19.42;;;17.42;;
44130;SDS011;29792;48.726;9.248;2022-08-19T08:56:24;27.10;;;20.70;;
44130;SDS011;29792;48.726;9.248;2022-08-19T09:01:18;20.67;;;17.88;;
44130;SDS011;29792;48.726;9.248;2022-08-19T09:03:44;22.38;;;19.27;;
44130;SDS011;29792;48.726;9.248;2022-08-19T09:09:04;24.98;;;19.70;;
44130;SDS011;29792;48.726;9.248;2022-08-19T09:14:08;22.10;;;18.23;;
44130;SDS011;29792;48.726;9.248;2022-08-19T09:16:44;23.20;;;18.25;;
44130;SDS011;29792;48.726;9.248;2022-08-19T09:19:10;22.83;;;18.85;;
44130;SDS011;29792;48.726;9.248;2022-08-19T09:21:35;22.85;;;20.42;;
44130;SDS011;29792;48.726;9.248;2022-08-19T09:24:01;23.15;;;20.33;;
44130;SDS011;29792;48.726;9.248;2022-08-19T09:26:28;22.67;;;20.02;;
44130;SDS011;29792;48.726;9.248;2022-08-19T09:28:54;24.50;;;19.05;;
44130;SDS011;29792;48.726;9.248;2022-08-19T09:31:23;21.17;;;17.83;;
44130;SDS011;29792;48.726;9.248;2022-08-19T09:33:51;22.02;;;19.63;;
44130;SDS011;29792;48.726;9.248;2022-08-19T09:36:18;21.75;;;18.48;;
44130;SDS011;29792;48.726;9.248;2022-08-19T09:38:47;22.05;;;17.95;;
44130;SDS011;29792;48.726;9.248;2022-08-19T09:41:14;20.77;;;18.42;;
44130;SDS011;29792;48.726;9.248;2022-08-19T09:43:41;21.23;;;18.13;;
44130;SDS011;29792;48.726;9.248;2022-08-19T09:46:09;21.17;;;18.50;;
44130;SDS011;29792;48.726;9.248;2022-08-19T09:48:35;20.40;;;18.17;;
44130;SDS011;29792;48.726;9.248;2022-08-19T09:51:05;22.95;;;18.92;;
44130;SDS011;29792;48.726;9.248;2022-08-19T09:53:32;20.85;;;18.63;;
44130;SDS011;29792;48.726;9.248;2022-08-19T09:55:58;18.40;;;15.93;;
44130;SDS011;29792;48.726;9.248;2022-08-19T09:58:24;18.23;;;16.17;;
44130;SDS011;29792;48.726;9.248;2022-08-19T10:00:53;20.98;;;19.00;;
44130;SDS011;29792;48.726;9.248;2022-08-19T10:03:23;23.05;;;18.70;;
44130;SDS011;29792;48.726;9.248;2022-08-19T10:05:49;18.58;;;16.67;;
44130;SDS011;29792;48.726;9.248;2022-08-19T10:08:15;19.95;;;16.67;;
44130;SDS011;29792;48.726;9.248;2022-08-19T10:10:46;21.00;;;17.15;;
44130;SDS011;29792;48.726;9.248;2022-08-19T10:13:13;20.70;;;17.52;;
44130;SDS011;29792;48.726;9.248;2022-08-19T10:15:43;20.02;;;17.48;;
44130;SDS011;29792;48.726;9.248;2022-08-19T10:18:09;22.02;;;19.77;;
44130;SDS011;29792;48.726;9.248;2022-08-19T10:20:36;20.08;;;17.88;;
44130;SDS011;29792;48.726;9.248;2022-08-19T10:23:02;19.58;;;16.52;;
44130;SDS011;29792;48.726;9.248;2022-08-19T10:25:27;21.52;;;17.13;;
44130;SDS011;29792;48.726;9.248;2022-08-19T10:27:53;18.20;;;16.27;;
44130;SDS011;29792;48.726;9.248;2022-08-19T10:30:18;21.92;;;16.98;;
44130;SDS011;29792;48.726;9.248;2022-08-19T10:32:44;21.38;;;17.35;;
44130;SDS011;29792;48.726;9.248;2022-08-19T10:35:11;21.00;;;17.38;;
44130;SDS011;29792;48.726;9.248;2022-08-19T10:37:37;22.13;;;18.15;;
44130;SDS011;29792;48.726;9.248;2022-08-19T10:40:04;19.95;;;17.17;;
44130;SDS011;29792;48.726;9.248;2022-08-19T10:42:31;18.88;;;16.77;;
44130;SDS011;29792;48.726;9.248;2022-08-19T10:44:57;19.15;;;16.90;;
44130;SDS011;29792;48.726;9.248;2022-08-19T10:47:22;26.50;;;18.70;;
44130;SDS011;29792;48.726;9.248;2022-08-19T10:49:51;19.88;;;17.15;;
44130;SDS011;29792;48.726;9.248;2022-08-19T10:52:36;19.80;;;16.15;;
44130;SDS011;29792;48.726;9.248;2022-08-19T10:55:05;19.20;;;16.20;;
44130;SDS011;29792;48.726;9.248;2022-08-19T10:57:49;19.10;;;16.73;;
44130;SDS011;29792;48.726;9.248;2022-08-19T11:00:15;19.98;;;16.85;;
44130;SDS011;29792;48.726;9.248;2022-08-19T11:02:41;18.35;;;16.08;;
44130;SDS011;29792;48.726;9.248;2022-08-19T11:05:07;18.52;;;15.23;;
44130;SDS011;29792;48.726;9.248;2022-08-19T11:07:35;18.45;;;15.25;;
44130;SDS011;29792;48.726;9.248;2022-08-19T11:10:02;18.15;;;16.23;;
44130;SDS011;29792;48.726;9.248;2022-08-19T11:12:28;18.08;;;16.05;;
44130;SDS011;29792;48.726;9.248;2022-08-19T11:14:53;17.02;;;15.27;;
44130;SDS011;29792;48.726;9.248;2022-08-19T11:17:19;19.40;;;17.38;;
44130;SDS011;29792;48.726;9.248;2022-08-19T11:19:45;19.10;;;17.17;;
44130;SDS011;29792;48.726;9.248;2022-08-19T11:22:11;17.58;;;15.52;;
44130;SDS011;29792;48.726;9.248;2022-08-19T11:24:37;18.58;;;15.45;;
44130;SDS011;29792;48.726;9.248;2022-08-19T11:27:04;19.75;;;15.95;;
44130;SDS011;29792;48.726;9.248;2022-08-19T11:29:32;19.75;;;17.17;;
44130;SDS011;29792;48.726;9.248;2022-08-19T11:31:59;19.23;;;17.30;;
44130;SDS011;29792;48.726;9.248;2022-08-19T11:34:28;20.30;;;17.75;;
44130;SDS011;29792;48.726;9.248;2022-08-19T11:36:54;24.10;;;20.77;;
44130;SDS011;29792;48.726;9.248;2022-08-19T11:39:23;20.92;;;18.58;;
44130;SDS011;29792;48.726;9.248;2022-08-19T11:41:50;21.45;;;19.17;;
44130;SDS011;29792;48.726;9.248;2022-08-19T11:44:15;21.75;;;18.83;;
44130;SDS011;29792;48.726;9.248;2022-08-19T11:46:41;22.58;;;19.40;;
44130;SDS011;29792;48.726;9.248;2022-08-19T11:49:11;22.70;;;20.33;;
44130;SDS011;29792;48.726;9.248;2022-08-19T11:51:38;25.45;;;20.33;;
44130;SDS011;29792;48.726;9.248;2022-08-19T11:54:04;29.67;;;22.55;;
44130;SDS011;29792;48.726;9.248;2022-08-19T11:56:30;26.13;;;20.67;;
44130;SDS011;29792;48.726;9.248;2022-08-19T11:58:56;25.40;;;20.63;;
44130;SDS011;29792;48.726;9.248;2022-08-19T12:01:23;24.70;;;20.73;;
44130;SDS011;29792;48.726;9.248;2022-08-19T12:03:50;25.83;;;21.17;;
44130;SDS011;29792;48.726;9.248;2022-08-19T12:06:17;24.52;;;20.60;;
44130;SDS011;29792;48.726;9.248;2022-08-19T12:08:50;24.67;;;21.73;;
44130;SDS011;29792;48.726;9.248;2022-08-19T12:11:16;27.38;;;22.35;;
44130;SDS011;29792;48.726;9.248;2022-08-19T12:13:42;25.83;;;21.73;;
44130;SDS011;29792;48.726;9.248;2022-08-19T12:16:15;23.35;;;20.45;;
44130;SDS011;29792;48.726;9.248;2022-08-19T12:18:42;25.15;;;21.55;;
44130;SDS011;29792;48.726;9.248;2022-08-19T12:21:14;25.02;;;21.42;;
44130;SDS011;29792;48.726;9.248;2022-08-19T12:23:48;25.65;;;21.75;;
44130;SDS011;29792;48.726;9.248;2022-08-19T12:26:15;27.92;;;23.02;;
44130;SDS011;29792;48.726;9.248;2022-08-19T12:28:40;26.85;;;21.95;;
44130;SDS011;29792;48.726;9.248;2022-08-19T12:31:06;25.38;;;21.45;;
44130;SDS011;29792;48.726;9.248;2022-08-19T12:33:32;26.88;;;21.25;;
44130;SDS011;29792;48.726;9.248;2022-08-19T12:36:02;24.85;;;20.25;;
44130;SDS011;29792;48.726;9.248;2022-08-19T12:38:30;27.13;;;22.10;;
44130;SDS011;29792;48.726;9.248;2022-08-19T12:40:57;23.77;;;21.27;;
44130;SDS011;29792;48.726;9.248;2022-08-19T12:43:22;25.08;;;20.55;;
44130;SDS011;29792;48.726;9.248;2022-08-19T12:45:48;26.45;;;22.38;;
44130;SDS011;29792;48.726;9.248;2022-08-19T12:48:14;27.27;;;21.65;;
44130;SDS011;29792;48.726;9.248;2022-08-19T12:50:40;27.35;;;21.65;;
44130;SDS011;29792;48.726;9.248;2022-08-19T12:53:06;29.13;;;21.95;;
44130;SDS011;29792;48.726;9.248;2022-08-19T12:55:31;28.25;;;22.60;;
44130;SDS011;29792;48.726;9.248;2022-08-19T12:57:56;32.53;;;26.60;;
44130;SDS011;29792;48.726;9.248;2022-08-19T13:00:22;28.30;;;23.35;;
44130;SDS011;29792;48.726;9.248;2022-08-19T13:02:48;32.20;;;25.42;;
44130;SDS011;29792;48.726;9.248;2022-08-19T13:05:19;28.23;;;23.67;;
44130;SDS011;29792;48.726;9.248;2022-08-19T13:07:48;32.88;;;26.65;;
44130;SDS011;29792;48.726;9.248;2022-08-19T13:10:16;30.63;;;24.92;;
44130;SDS011;29792;48.726;9.248;2022-08-19T13:12:44;30.90;;;24.00;;
44130;SDS011;29792;48.726;9.248;2022-08-19T13:15:10;26.83;;;23.30;;
44130;SDS011;29792;48.726;9.248;2022-08-19T13:17:36;31.90;;;25.17;;
44130;SDS011;29792;48.726;9.248;2022-08-19T13:20:02;28.42;;;23.58;;
44130;SDS011;29792;48.726;9.248;2022-08-19T13:22:29;26.77;;;22.52;;
44130;SDS011;29792;48.726;9.248;2022-08-19T13:24:55;28.40;;;23.13;;
44130;SDS011;29792;48.726;9.248;2022-08-19T13:27:20;26.05;;;21.23;;
44130;SDS011;29792;48.726;9.248;2022-08-19T13:29:45;27.63;;;23.92;;
44130;SDS011;29792;48.726;9.248;2022-08-19T13:32:29;26.55;;;21.83;;
44130;SDS011;29792;48.726;9.248;2022-08-19T13:35:14;26.63;;;22.52;;
44130;SDS011;29792;48.726;9.248;2022-08-19T13:37:40;28.80;;;23.95;;
44130;SDS011;29792;48.726;9.248;2022-08-19T13:40:09;25.90;;;21.45;;
44130;SDS011;29792;48.726;9.248;2022-08-19T13:42:54;26.67;;;23.77;;
44130;SDS011;29792;48.726;9.248;2022-08-19T13:45:20;27.50;;;22.88;;
44130;SDS011;29792;48.726;9.248;2022-08-19T13:47:49;27.50;;;22.90;;
44130;SDS011;29792;48.726;9.248;2022-08-19T13:50:17;30.17;;;24.40;;
44130;SDS011;29792;48.726;9.248;2022-08-19T13:52:45;29.67;;;23.13;;
44130;SDS011;29792;48.726;9.248;2022-08-19T13:55:12;26.95;;;22.38;;
44130;SDS011;29792;48.726;9.248;2022-08-19T13:57:38;30.10;;;25.00;;
44130;SDS011;29792;48.726;9.248;2022-08-19T14:00:05;29.48;;;23.92;;
44130;SDS011;29792;48.726;9.248;2022-08-19T14:02:38;28.48;;;23.92;;
44130;SDS011;29792;48.726;9.248;2022-08-19T14:05:04;29.15;;;22.20;;
44130;SDS011;29792;48.726;9.248;2022-08-19T14:07:31;24.35;;;21.73;;
44130;SDS011;29792;48.726;9.248;2022-08-19T14:09:56;27.70;;;23.90;;
44130;SDS011;29792;48.726;9.248;2022-08-19T14:12:22;27.48;;;22.90;;
44130;SDS011;29792;48.726;9.248;2022-08-19T14:14:47;28.02;;;24.23;;
44130;SDS011;29792;48.726;9.248;2022-08-19T14:17:13;27.38;;;21.92;;
44130;SDS011;29792;48.726;9.248;2022-08-19T14:19:38;28.42;;;23.08;;
44130;SDS011;29792;48.726;9.248;2022-08-19T14:22:03;26.45;;;22.80;;
44130;SDS011;29792;48.726;9.248;2022-08-19T14:24:30;27.52;;;23.42;;
44130;SDS011;29792;48.726;9.248;2022-08-19T14:26:55;29.13;;;25.17;;
44130;SDS011;29792;48.726;9.248;2022-08-19T14:29:22;26.52;;;23.23;;
44130;SDS011;29792;48.726;9.248;2022-08-19T14:31:48;29.27;;;23.70;;
44130;SDS011;29792;48.726;9.248;2022-08-19T14:34:13;25.98;;;23.25;;